SPTAZ EPLL-EPLL
Flight info
| Callsign | SPTAZ |
|---|---|
| Flight time | 0h 3m |
| Altitude | 1500 |
| Route | EPLL/25 CLOSED TRAFFIC |
| Aircraft | DA40/L-V/N |
Departure
| Time | 2026-05-04 20:27 |
|---|---|
| Airport | Łódź Władysław Reymont Airport (EPLL) |
Arrival
| Time | 2026-05-04 20:30 |
|---|---|
| Airport | Łódź Władysław Reymont Airport (EPLL) |
| Time | Latitude | Longitude | Altitude | Speed | Heading |
|---|---|---|---|---|---|
| 2026-05-04 20:24 | 51.72279 | 19.40701 | 607 ft | 0 kts | 322° |
| 2026-05-04 20:25 | 51.72286 | 19.40693 | 607 ft | 4 kts | 328° |
| 2026-05-04 20:25 | 51.72341 | 19.40621 | 607 ft | 11 kts | 294° |
| 2026-05-04 20:25 | 51.72339 | 19.40521 | 607 ft | 7 kts | 266° |
| 2026-05-04 20:26 | 51.72313 | 19.40401 | 607 ft | 22 kts | 251° |
| 2026-05-04 20:26 | 51.72232 | 19.40008 | 607 ft | 48 kts | 254° |
| 2026-05-04 20:26 | 51.72103 | 19.39351 | 755 ft | 75 kts | 251° |
| 2026-05-04 20:26 | 51.71903 | 19.38478 | 1003 ft | 90 kts | 255° |
| 2026-05-04 20:27 | 51.71731 | 19.37497 | 1338 ft | 91 kts | 259° |
| 2026-05-04 20:27 | 51.71731 | 19.36418 | 1530 ft | 105 kts | 287° |
| 2026-05-04 20:27 | 51.72233 | 19.35589 | 1771 ft | 113 kts | 341° |
| 2026-05-04 20:27 | 51.73002 | 19.35972 | 1659 ft | 123 kts | 46° |
| 2026-05-04 20:28 | 51.73298 | 19.36988 | 1644 ft | 102 kts | 67° |
| 2026-05-04 20:28 | 51.73526 | 19.38094 | 1517 ft | 93 kts | 70° |
| 2026-05-04 20:28 | 51.73673 | 19.39046 | 1450 ft | 82 kts | 74° |
| 2026-05-04 20:28 | 51.73772 | 19.39956 | 1375 ft | 85 kts | 79° |
| 2026-05-04 20:29 | 51.73818 | 19.40824 | 1380 ft | 73 kts | 83° |
| 2026-05-04 20:29 | 51.73803 | 19.41641 | 1334 ft | 73 kts | 91° |
| 2026-05-04 20:29 | 51.73672 | 19.42411 | 1305 ft | 73 kts | 123° |
| 2026-05-04 20:29 | 51.73264 | 19.42764 | 1201 ft | 62 kts | 187° |
| 2026-05-04 20:30 | 51.72892 | 19.42601 | 1089 ft | 51 kts | 217° |
| 2026-05-04 20:30 | 51.72680 | 19.42166 | 944 ft | 51 kts | 248° |
| 2026-05-04 20:30 | 51.72562 | 19.41572 | 832 ft | 55 kts | 254° |
| 2026-05-04 20:30 | 51.72448 | 19.41038 | 723 ft | 45 kts | 256° |
| 2026-05-04 20:31 | 51.72335 | 19.40528 | 656 ft | 48 kts | 254° |
| 2026-05-04 20:31 | 51.72214 | 19.39994 | 738 ft | 53 kts | 253° |
| 2026-05-04 20:31 | 51.72104 | 19.39336 | 892 ft | 71 kts | 255° |
| 2026-05-04 20:31 | 51.71879 | 19.38446 | 1042 ft | 99 kts | 252° |
| 2026-05-04 20:32 | 51.71675 | 19.37409 | 1391 ft | 101 kts | 257° |
| 2026-05-04 20:32 | 51.71559 | 19.36232 | 1601 ft | 113 kts | 272° |
| 2026-05-04 20:32 | 51.71760 | 19.34887 | 1573 ft | 135 kts | 296° |
| 2026-05-04 20:32 | 51.72356 | 19.33846 | 1579 ft | 115 kts | 332° |
| 2026-05-04 20:33 | 51.73043 | 19.33436 | 1586 ft | 97 kts | 340° |
| 2026-05-04 20:33 | 51.73651 | 19.33493 | 1612 ft | 91 kts | 32° |
| 2026-05-04 20:33 | 51.74061 | 19.34265 | 1579 ft | 92 kts | 48° |
| 2026-05-04 20:33 | 51.74443 | 19.35063 | 1586 ft | 87 kts | 49° |
| 2026-05-04 20:34 | 51.74782 | 19.35869 | 1572 ft | 85 kts | 54° |
| 2026-05-04 20:34 | 51.75100 | 19.36727 | 1519 ft | 89 kts | 56° |
| 2026-05-04 20:34 | 51.75350 | 19.37608 | 1510 ft | 88 kts | 65° |
| 2026-05-04 20:34 | 51.75566 | 19.38567 | 1447 ft | 93 kts | 67° |
| 2026-05-04 20:35 | 51.75773 | 19.39562 | 1401 ft | 94 kts | 69° |
| 2026-05-04 20:35 | 51.75969 | 19.40568 | 1375 ft | 93 kts | 69° |
| 2026-05-04 20:35 | 51.76150 | 19.41552 | 1372 ft | 90 kts | 70° |
| 2026-05-04 20:35 | 51.76291 | 19.42506 | 1404 ft | 84 kts | 86° |
| 2026-05-04 20:36 | 51.76032 | 19.43276 | 1426 ft | 83 kts | 143° |
| 2026-05-04 20:36 | 51.75491 | 19.43695 | 1376 ft | 88 kts | 166° |
| 2026-05-04 20:36 | 51.74941 | 19.43876 | 1440 ft | 72 kts | 173° |
| 2026-05-04 20:36 | 51.74451 | 19.43947 | 1476 ft | 71 kts | 181° |
| 2026-05-04 20:37 | 51.73961 | 19.43933 | 1463 ft | 67 kts | 187° |
| 2026-05-04 20:37 | 51.73486 | 19.43905 | 1338 ft | 69 kts | 186° |
| 2026-05-04 20:37 | 51.73054 | 19.43690 | 1227 ft | 65 kts | 229° |
| 2026-05-04 20:37 | 51.72868 | 19.43034 | 1081 ft | 66 kts | 256° |
| 2026-05-04 20:38 | 51.72723 | 19.42325 | 946 ft | 66 kts | 256° |
| 2026-05-04 20:38 | 51.72576 | 19.41636 | 841 ft | 62 kts | 252° |
| 2026-05-04 20:38 | 51.72433 | 19.40975 | 721 ft | 65 kts | 255° |
| 2026-05-04 20:38 | 51.72292 | 19.40307 | 626 ft | 58 kts | 253° |
| 2026-05-04 20:39 | 51.72181 | 19.39782 | 607 ft | 43 kts | 247° |
| 2026-05-04 20:39 | 51.72053 | 19.39173 | 704 ft | 61 kts | 253° |
| 2026-05-04 20:39 | 51.71917 | 19.38470 | 930 ft | 71 kts | 257° |
| 2026-05-04 20:39 | 51.71801 | 19.37582 | 1127 ft | 90 kts | 263° |
| 2026-05-04 20:40 | 51.71714 | 19.36506 | 1334 ft | 104 kts | 265° |
| 2026-05-04 20:40 | 51.71760 | 19.35291 | 1470 ft | 115 kts | 294° |
| 2026-05-04 20:40 | 51.72486 | 19.34798 | 1577 ft | 125 kts | 354° |
| 2026-05-04 20:40 | 51.73361 | 19.34657 | 1671 ft | 125 kts | 353° |
| 2026-05-04 20:41 | 51.74253 | 19.34543 | 1712 ft | 130 kts | 353° |
| 2026-05-04 20:41 | 51.75038 | 19.34977 | 1857 ft | 135 kts | 75° |
| 2026-05-04 20:41 | 51.75153 | 19.36427 | 1971 ft | 127 kts | 76° |
| 2026-05-04 20:41 | 51.75312 | 19.37783 | 1907 ft | 117 kts | 77° |
| 2026-05-04 20:42 | 51.75470 | 19.39038 | 1808 ft | 114 kts | 75° |
| 2026-05-04 20:42 | 51.75672 | 19.40256 | 1747 ft | 108 kts | 68° |
| 2026-05-04 20:42 | 51.75950 | 19.41393 | 1635 ft | 109 kts | 64° |
| 2026-05-04 20:42 | 51.76022 | 19.42575 | 1628 ft | 104 kts | 115° |
| 2026-05-04 20:43 | 51.75527 | 19.43058 | 1803 ft | 68 kts | 165° |
| 2026-05-04 20:43 | 51.75082 | 19.43290 | 1795 ft | 72 kts | 166° |
| 2026-05-04 20:43 | 51.74587 | 19.43488 | 1712 ft | 72 kts | 169° |
| 2026-05-04 20:43 | 51.74085 | 19.43644 | 1551 ft | 77 kts | 173° |
| 2026-05-04 20:44 | 51.73584 | 19.43602 | 1463 ft | 70 kts | 195° |
| 2026-05-04 20:44 | 51.73135 | 19.43324 | 1320 ft | 71 kts | 216° |
| 2026-05-04 20:44 | 51.72812 | 19.42757 | 1138 ft | 67 kts | 248° |
| 2026-05-04 20:44 | 51.72651 | 19.42086 | 951 ft | 62 kts | 254° |
| 2026-05-04 20:45 | 51.72504 | 19.41316 | 833 ft | 77 kts | 254° |
| 2026-05-04 20:45 | 51.72329 | 19.40482 | 673 ft | 76 kts | 253° |
| 2026-05-04 20:45 | 51.72180 | 19.39769 | 633 ft | 60 kts | 254° |
| 2026-05-04 20:45 | 51.72054 | 19.39153 | 615 ft | 54 kts | 254° |
| 2026-05-04 20:46 | 51.71926 | 19.38588 | 614 ft | 52 kts | 241° |
| 2026-05-04 20:46 | 51.71789 | 19.38037 | 607 ft | 62 kts | 252° |
| 2026-05-04 20:46 | 51.71645 | 19.37217 | 788 ft | 87 kts | 258° |
| 2026-05-04 20:46 | 51.71496 | 19.36209 | 1098 ft | 98 kts | 260° |
| 2026-05-04 20:47 | 51.71174 | 19.35420 | 1569 ft | 93 kts | 194° |
| 2026-05-04 20:47 | 51.70448 | 19.35506 | 1660 ft | 111 kts | 177° |
| 2026-05-04 20:47 | 51.69668 | 19.35612 | 1749 ft | 118 kts | 178° |
| 2026-05-04 20:47 | 51.68831 | 19.35705 | 1690 ft | 122 kts | 178° |
| 2026-05-04 20:48 | 51.68322 | 19.36490 | 1792 ft | 114 kts | 80° |
| 2026-05-04 20:48 | 51.68408 | 19.37731 | 1839 ft | 111 kts | 74° |
| 2026-05-04 20:48 | 51.68655 | 19.38936 | 1839 ft | 113 kts | 68° |
| 2026-05-04 20:48 | 51.68917 | 19.40130 | 1851 ft | 114 kts | 68° |
| 2026-05-04 20:49 | 51.69179 | 19.41344 | 1828 ft | 118 kts | 68° |
| 2026-05-04 20:49 | 51.69462 | 19.42564 | 1730 ft | 111 kts | 64° |
| 2026-05-04 20:49 | 51.69772 | 19.43704 | 1618 ft | 117 kts | 62° |
| 2026-05-04 20:49 | 51.70146 | 19.44950 | 1603 ft | 128 kts | 60° |
| 2026-05-04 20:50 | 51.70555 | 19.45901 | 1840 ft | 62 kts | 27° |
| 2026-05-04 20:50 | 51.70970 | 19.45807 | 1877 ft | 64 kts | 326° |
| 2026-05-04 20:50 | 51.71314 | 19.45355 | 1807 ft | 62 kts | 321° |
| 2026-05-04 20:50 | 51.71642 | 19.44925 | 1690 ft | 60 kts | 322° |
| 2026-05-04 20:51 | 51.71973 | 19.44510 | 1570 ft | 60 kts | 322° |
| 2026-05-04 20:51 | 51.72299 | 19.44076 | 1439 ft | 62 kts | 315° |
| 2026-05-04 20:51 | 51.72521 | 19.43480 | 1254 ft | 65 kts | 301° |
| 2026-05-04 20:51 | 51.72693 | 19.42749 | 1089 ft | 71 kts | 276° |
| 2026-05-04 20:52 | 51.72620 | 19.41990 | 969 ft | 66 kts | 255° |
| 2026-05-04 20:52 | 51.72471 | 19.41292 | 844 ft | 66 kts | 253° |
| 2026-05-04 20:52 | 51.72343 | 19.40579 | 709 ft | 65 kts | 252° |
| 2026-05-04 20:52 | 51.72220 | 19.39968 | 607 ft | 42 kts | 255° |
| 2026-05-04 20:53 | 51.72197 | 19.39876 | 607 ft | 14 kts | 76° |
| 2026-05-04 20:53 | 51.72293 | 19.40300 | 607 ft | 40 kts | 70° |
| 2026-05-04 20:53 | 51.72332 | 19.40464 | 607 ft | 6 kts | 72° |
| 2026-05-04 20:53 | 51.72349 | 19.40559 | 607 ft | 4 kts | 103° |
| 2026-05-04 20:54 | 51.72286 | 19.40695 | 607 ft | 27 kts | 144° |
| 2026-05-04 20:54 | 51.72117 | 19.40838 | 607 ft | 23 kts | 168° |
| 2026-05-04 20:54 | 51.72021 | 19.40842 | 607 ft | 7 kts | 239° |
| 2026-05-04 20:54 | 51.72009 | 19.40773 | 607 ft | 11 kts | 244° |
| 2026-05-04 20:55 | 51.72011 | 19.40718 | 607 ft | 1 kts | 17° |
| 2026-05-04 20:55 | 51.72012 | 19.40722 | 607 ft | 0 kts | 121° |